Time;durP1;ratioP1;P1;durP2;ratioP2;P2;SDS_P1;SDS_P2;PMS_P1;PMS_P2;Temp;Humidity;BMP_temperature;BMP_pressure;BME280_temperature;BME280_humidity;BME280_pressure;Samples;Min_cycle;Max_cycle;Signal;HPM_P1;HPM_P2
2024/03/13 00:00:46;;;;;;;9.85;5.90;;;9.60;99.90;;;;;;4159371;28;20026;-59
2024/03/13 00:02:46;;;;;;;9.30;6.20;;;9.60;99.90;;;;;;4161284;28;20489;-59
2024/03/13 00:04:47;;;;;;;9.38;6.35;;;9.60;99.90;;;;;;4160039;28;20052;-59
2024/03/13 00:06:50;;;;;;;11.57;6.45;;;9.70;99.90;;;;;;4156354;28;20133;-61
2024/03/13 00:08:51;;;;;;;8.68;6.18;;;9.60;99.90;;;;;;4153500;28;20029;-59
2024/03/13 00:10:52;;;;;;;12.48;6.68;;;9.60;99.90;;;;;;4159229;28;20132;-59
2024/03/13 00:12:52;;;;;;;11.57;7.05;;;9.60;99.90;;;;;;4158348;28;20565;-59
2024/03/13 00:14:53;;;;;;;12.90;6.97;;;9.60;99.90;;;;;;4159095;28;20041;-59
2024/03/13 00:16:54;;;;;;;9.75;6.28;;;9.60;99.90;;;;;;4159824;28;20048;-59
2024/03/13 00:18:55;;;;;;;9.77;6.38;;;9.70;99.90;;;;;;4159628;28;20347;-59
2024/03/13 00:20:56;;;;;;;10.35;7.38;;;9.60;99.90;;;;;;4159001;28;20083;-59
2024/03/13 00:22:57;;;;;;;9.52;6.50;;;9.70;99.90;;;;;;4159683;28;20041;-59
2024/03/13 00:24:57;;;;;;;10.10;6.60;;;9.60;99.90;;;;;;4160373;28;20026;-59
2024/03/13 00:26:58;;;;;;;13.25;6.82;;;9.60;99.90;;;;;;4158384;28;20391;-59
2024/03/13 00:28:59;;;;;;;7.65;5.63;;;9.70;99.90;;;;;;4159520;28;20034;-59
2024/03/13 00:31:00;;;;;;;9.50;6.68;;;9.70;99.90;;;;;;4157187;28;20025;-59
2024/03/13 00:33:00;;;;;;;9.55;6.57;;;9.60;99.90;;;;;;4160445;28;20025;-59
2024/03/13 00:35:01;;;;;;;9.48;6.28;;;9.60;99.90;;;;;;4160285;28;20033;-59
2024/03/13 00:37:02;;;;;;;11.52;7.07;;;9.60;99.90;;;;;;4159155;28;20037;-59
2024/03/13 00:39:03;;;;;;;10.13;6.75;;;9.60;99.90;;;;;;4153951;28;20371;-59
2024/03/13 00:41:03;;;;;;;9.77;6.20;;;9.60;99.90;;;;;;4157118;28;20061;-59
2024/03/13 00:43:04;;;;;;;11.60;6.75;;;9.60;99.90;;;;;;4157020;28;20046;-66
2024/03/13 00:45:05;;;;;;;10.75;6.68;;;9.50;99.90;;;;;;4158447;28;20311;-68
2024/03/13 00:47:07;;;;;;;12.95;7.10;;;9.50;99.90;;;;;;4159656;28;20375;-68
2024/03/13 00:49:07;;;;;;;12.23;6.87;;;9.50;99.90;;;;;;4158979;28;20164;-68
2024/03/13 00:51:09;;;;;;;12.45;7.80;;;9.50;99.90;;;;;;4156117;28;20038;-68
2024/03/13 00:53:09;;;;;;;11.07;6.90;;;9.50;99.90;;;;;;4157946;28;20100;-68
2024/03/13 00:55:10;;;;;;;10.77;6.18;;;9.50;99.90;;;;;;4157744;28;20034;-68
2024/03/13 00:57:11;;;;;;;10.20;6.53;;;9.50;99.90;;;;;;4159614;28;20053;-68
2024/03/13 00:59:12;;;;;;;9.55;6.40;;;9.50;99.90;;;;;;4158934;28;20036;-68
2024/03/13 01:01:12;;;;;;;12.02;6.60;;;9.50;99.90;;;;;;4157764;28;20073;-67
2024/03/13 01:03:14;;;;;;;9.55;6.45;;;9.50;99.90;;;;;;4159207;28;20101;-68
2024/03/13 01:05:15;;;;;;;12.55;7.22;;;9.50;99.90;;;;;;4158109;28;20045;-68
2024/03/13 01:07:15;;;;;;;12.93;7.30;;;9.50;99.90;;;;;;4158074;28;20041;-68
2024/03/13 01:09:19;;;;;;;10.57;6.90;;;9.50;99.90;;;;;;4152894;28;20095;-67
2024/03/13 01:11:20;;;;;;;11.82;7.10;;;9.50;99.90;;;;;;4157789;28;20388;-67
2024/03/13 01:13:22;;;;;;;10.15;6.82;;;9.50;99.90;;;;;;4156116;28;20044;-67
2024/03/13 01:15:22;;;;;;;11.05;6.32;;;9.50;99.90;;;;;;4153620;28;20530;-67
2024/03/13 01:17:23;;;;;;;10.27;6.93;;;9.50;99.90;;;;;;4153365;28;20053;-68
2024/03/13 01:19:29;;;;;;;10.10;7.18;;;9.50;99.90;;;;;;4158267;28;20037;-68
2024/03/13 01:21:31;;;;;;;10.70;7.03;;;9.50;99.90;;;;;;4155376;28;20075;-68
2024/03/13 01:23:31;;;;;;;9.80;6.78;;;9.50;99.90;;;;;;4159486;28;20044;-68
2024/03/13 01:25:32;;;;;;;9.23;6.47;;;9.50;99.90;;;;;;4158524;28;20104;-68
2024/03/13 01:27:32;;;;;;;13.60;7.35;;;9.50;99.90;;;;;;4158901;28;20041;-68
2024/03/13 01:29:38;;;;;;;10.65;6.30;;;9.50;99.90;;;;;;4157885;28;20045;-68
2024/03/13 01:31:39;;;;;;;10.40;6.60;;;9.60;99.90;;;;;;4156874;28;20433;-68
2024/03/13 01:33:39;;;;;;;9.80;6.75;;;9.60;99.90;;;;;;4158774;28;20033;-68
2024/03/13 01:35:41;;;;;;;9.63;6.57;;;9.60;99.90;;;;;;4154399;28;20041;-68
2024/03/13 01:37:58;;;;;;;11.68;7.03;;;9.60;99.90;;;;;;4157405;28;20037;-68
2024/03/13 01:40:03;;;;;;;11.02;6.82;;;9.60;99.90;;;;;;4151829;28;20482;-68
2024/03/13 01:56:21;;;;;;;11.63;7.32;;;9.60;99.90;;;;;;4154557;28;22947;-70
2024/03/13 01:58:39;;;;;;;11.80;7.93;;;9.60;99.90;;;;;;4157144;28;20059;-68
2024/03/13 02:02:59;;;;;;;11.27;7.18;;;9.60;99.90;;;;;;4155635;28;20034;-70
2024/03/13 02:05:00;;;;;;;10.68;7.50;;;9.60;99.90;;;;;;4159051;28;20052;-70
2024/03/13 02:07:01;;;;;;;11.07;7.25;;;9.50;99.90;;;;;;4157526;28;20056;-70
2024/03/13 02:09:01;;;;;;;10.43;7.03;;;9.60;99.90;;;;;;4157866;28;20474;-70
2024/03/13 02:11:04;;;;;;;10.07;6.95;;;9.60;99.90;;;;;;4156766;28;20040;-70
2024/03/13 02:13:12;;;;;;;10.40;7.38;;;9.60;99.90;;;;;;4157631;28;20472;-70
2024/03/13 02:15:13;;;;;;;11.30;7.75;;;9.60;99.90;;;;;;4153572;28;20037;-70
2024/03/13 02:17:14;;;;;;;11.25;7.18;;;9.50;99.90;;;;;;4154100;28;20057;-70
2024/03/13 02:19:14;;;;;;;9.55;6.50;;;9.50;99.90;;;;;;4158302;28;20032;-71
2024/03/13 02:21:15;;;;;;;9.30;6.90;;;9.60;99.90;;;;;;4155524;28;20038;-71
2024/03/13 02:23:28;;;;;;;9.27;6.93;;;9.60;99.90;;;;;;4152007;28;20048;-69
2024/03/13 02:25:31;;;;;;;8.45;6.30;;;9.50;99.90;;;;;;4141657;28;20418;-71
2024/03/13 02:27:32;;;;;;;10.27;7.07;;;9.50;99.90;;;;;;4150343;28;20042;-71
2024/03/13 02:29:33;;;;;;;9.80;7.18;;;9.50;99.90;;;;;;4148891;28;20413;-71
2024/03/13 02:31:34;;;;;;;9.98;6.95;;;9.50;99.90;;;;;;4153787;28;20048;-71
2024/03/13 02:33:36;;;;;;;10.70;7.43;;;9.50;99.90;;;;;;4157912;28;20037;-71
2024/03/13 02:35:36;;;;;;;10.30;7.13;;;9.50;99.90;;;;;;4155688;28;20041;-71
2024/03/13 02:37:41;;;;;;;8.90;6.70;;;9.50;99.90;;;;;;4152026;28;20461;-71
2024/03/13 02:39:41;;;;;;;9.25;6.32;;;9.50;99.90;;;;;;4154778;28;20034;-71
2024/03/13 02:41:42;;;;;;;9.73;6.82;;;9.50;99.90;;;;;;4157298;28;20113;-71
2024/03/13 02:43:42;;;;;;;7.60;5.68;;;9.50;99.90;;;;;;4157233;28;20478;-71
2024/03/13 02:45:43;;;;;;;8.82;6.28;;;9.50;99.90;;;;;;4156798;28;20036;-71
2024/03/13 02:47:44;;;;;;;9.73;6.88;;;9.50;99.90;;;;;;4154793;28;20136;-72
2024/03/13 02:49:44;;;;;;;10.60;7.18;;;9.50;99.90;;;;;;4157530;28;20033;-72
2024/03/13 02:51:45;;;;;;;10.50;6.80;;;9.50;99.90;;;;;;4156886;28;20039;-72
2024/03/13 02:53:46;;;;;;;10.38;7.13;;;9.50;99.90;;;;;;4159322;28;20493;-71
2024/03/13 02:55:47;;;;;;;10.48;7.22;;;9.50;99.90;;;;;;4156685;28;20033;-70
2024/03/13 02:57:49;;;;;;;9.65;6.32;;;9.50;99.90;;;;;;4157348;28;20029;-71
2024/03/13 02:59:50;;;;;;;11.07;7.45;;;9.50;99.90;;;;;;4156807;28;20625;-71
2024/03/13 03:01:52;;;;;;;10.57;6.78;;;9.50;99.90;;;;;;4157247;28;20042;-71
2024/03/13 03:03:52;;;;;;;8.98;7.05;;;9.50;99.90;;;;;;4157430;28;20083;-71
2024/03/13 03:05:53;;;;;;;10.80;6.65;;;9.50;99.90;;;;;;4156365;28;20474;-71
2024/03/13 03:07:54;;;;;;;8.82;6.18;;;9.50;99.90;;;;;;4158042;28;20049;-71
2024/03/13 03:09:54;;;;;;;9.40;6.57;;;9.60;99.90;;;;;;4158586;28;20088;-71
2024/03/13 03:11:56;;;;;;;8.93;6.50;;;9.60;99.90;;;;;;4157428;28;20482;-71
2024/03/13 03:13:57;;;;;;;8.07;6.25;;;9.60;99.90;;;;;;4153634;28;20040;-71
2024/03/13 03:15:59;;;;;;;9.10;6.18;;;9.60;99.90;;;;;;4155725;28;20498;-69
2024/03/13 03:18:00;;;;;;;8.07;5.80;;;9.50;99.90;;;;;;4154524;28;20037;-71
2024/03/13 03:20:01;;;;;;;8.93;6.07;;;9.60;99.90;;;;;;4154934;28;20096;-71
2024/03/13 03:22:03;;;;;;;8.93;6.35;;;9.60;99.90;;;;;;4157782;28;20441;-71
2024/03/13 03:24:04;;;;;;;9.13;6.57;;;9.60;99.90;;;;;;4157352;28;20471;-71
2024/03/13 03:26:05;;;;;;;6.65;5.00;;;9.60;99.90;;;;;;4155570;28;20045;-71
2024/03/13 03:28:06;;;;;;;8.23;5.72;;;9.60;99.90;;;;;;4156410;28;22534;-71
2024/03/13 03:30:07;;;;;;;8.75;5.80;;;9.60;99.90;;;;;;4156394;28;20103;-71
2024/03/13 03:32:08;;;;;;;9.27;6.60;;;9.60;99.90;;;;;;4157462;28;20095;-71
2024/03/13 03:34:09;;;;;;;8.48;6.07;;;9.60;99.90;;;;;;4160936;28;20536;-71
2024/03/13 03:36:09;;;;;;;7.57;5.85;;;9.60;99.90;;;;;;4159355;28;20038;-71
2024/03/13 03:38:10;;;;;;;8.10;5.97;;;9.60;99.90;;;;;;4158932;28;20111;-71
2024/03/13 03:40:14;;;;;;;9.70;7.10;;;9.60;99.90;;;;;;4159889;28;20037;-70
2024/03/13 03:42:17;;;;;;;8.05;6.03;;;9.60;99.90;;;;;;4159786;28;20049;-71
2024/03/13 03:44:18;;;;;;;9.13;6.53;;;9.70;99.90;;;;;;4161343;28;20535;-70
2024/03/13 03:46:19;;;;;;;8.15;5.35;;;9.70;99.90;;;;;;4160199;28;20037;-71
2024/03/13 03:48:21;;;;;;;10.00;6.22;;;9.70;99.90;;;;;;4160411;28;20081;-70
2024/03/13 03:50:22;;;;;;;6.90;5.38;;;9.70;99.90;;;;;;4157646;28;20033;-71
2024/03/13 03:52:22;;;;;;;9.20;6.28;;;9.70;99.90;;;;;;4158984;28;20049;-71
2024/03/13 03:54:23;;;;;;;7.05;5.10;;;9.70;99.90;;;;;;4155965;28;20437;-71
2024/03/13 03:56:24;;;;;;;8.02;5.63;;;9.70;99.90;;;;;;4152683;28;20038;-71
2024/03/13 03:58:24;;;;;;;6.63;5.25;;;9.70;99.90;;;;;;4156467;28;20125;-71
2024/03/13 04:00:25;;;;;;;7.60;5.78;;;9.70;99.90;;;;;;4152608;28;20041;-71
2024/03/13 04:02:27;;;;;;;8.48;5.88;;;9.70;99.90;;;;;;4160043;28;20065;-71
2024/03/13 04:04:28;;;;;;;7.50;5.50;;;9.70;99.90;;;;;;4160964;28;20053;-71
2024/03/13 04:06:28;;;;;;;7.40;5.93;;;9.70;99.90;;;;;;4160430;28;20026;-71
2024/03/13 04:08:29;;;;;;;7.72;5.30;;;9.70;99.90;;;;;;4159612;28;20091;-69
2024/03/13 04:10:29;;;;;;;6.78;4.57;;;9.70;99.90;;;;;;4157952;28;20032;-70
2024/03/13 04:12:30;;;;;;;5.95;4.53;;;9.70;99.90;;;;;;4158135;28;20053;-70
2024/03/13 04:14:30;;;;;;;6.78;5.28;;;9.70;99.90;;;;;;4159915;28;20033;-61
2024/03/13 04:16:31;;;;;;;6.38;5.30;;;9.70;99.90;;;;;;4160096;28;20052;-61
2024/03/13 04:18:32;;;;;;;6.03;4.80;;;9.80;99.90;;;;;;4158418;28;20422;-61
2024/03/13 04:20:33;;;;;;;8.27;5.90;;;9.80;99.90;;;;;;4154818;28;20041;-61
2024/03/13 04:22:34;;;;;;;6.85;5.40;;;9.80;99.90;;;;;;4159725;28;20540;-61
2024/03/13 04:24:34;;;;;;;7.18;5.53;;;9.80;99.90;;;;;;4161128;28;20037;-61
2024/03/13 04:26:41;;;;;;;7.70;6.00;;;9.80;99.90;;;;;;4159520;28;20124;-61
2024/03/13 04:28:45;;;;;;;7.75;5.40;;;9.80;99.90;;;;;;4159909;28;20040;-61
2024/03/13 04:30:48;;;;;;;7.38;5.40;;;9.70;99.90;;;;;;4157699;28;20108;-61
2024/03/13 04:32:49;;;;;;;7.90;6.18;;;9.80;99.90;;;;;;4159854;28;20079;-61
2024/03/13 04:34:50;;;;;;;6.65;5.00;;;9.80;99.90;;;;;;4160094;28;20030;-61
2024/03/13 04:36:51;;;;;;;6.43;4.38;;;9.80;99.90;;;;;;4159152;28;20453;-61
2024/03/13 04:38:51;;;;;;;7.40;5.60;;;9.70;99.90;;;;;;4157604;28;20041;-61
2024/03/13 04:40:52;;;;;;;6.47;5.22;;;9.80;99.90;;;;;;4159315;28;20089;-61
2024/03/13 04:42:53;;;;;;;5.28;4.30;;;9.80;99.90;;;;;;4155586;28;20030;-61
2024/03/13 04:44:55;;;;;;;4.80;3.97;;;9.80;99.90;;;;;;4159199;28;21333;-61
2024/03/13 04:46:56;;;;;;;5.47;4.43;;;9.80;99.90;;;;;;4152625;28;20041;-61
2024/03/13 04:48:56;;;;;;;5.93;4.50;;;9.80;99.90;;;;;;4157411;28;20482;-61
2024/03/13 04:50:58;;;;;;;5.10;3.97;;;9.80;99.90;;;;;;4154271;28;20053;-61
2024/03/13 04:52:59;;;;;;;5.20;4.37;;;9.80;99.90;;;;;;4157806;28;20543;-61
2024/03/13 04:54:59;;;;;;;5.25;4.10;;;9.80;99.90;;;;;;4159827;28;20037;-61
2024/03/13 04:57:00;;;;;;;7.03;4.22;;;9.80;99.90;;;;;;4154400;28;20448;-63
2024/03/13 04:59:00;;;;;;;5.85;4.65;;;9.90;99.90;;;;;;4153724;28;20113;-65
2024/03/13 05:01:02;;;;;;;5.22;4.15;;;9.90;99.90;;;;;;4158884;28;20064;-65
2024/03/13 05:03:04;;;;;;;6.53;3.75;;;9.90;99.90;;;;;;4161360;28;20033;-68
2024/03/13 05:05:09;;;;;;;5.75;4.30;;;9.90;99.90;;;;;;4158472;28;20046;-68
2024/03/13 05:07:12;;;;;;;5.20;4.28;;;9.80;99.90;;;;;;4157219;28;20088;-61
2024/03/13 05:09:12;;;;;;;6.07;4.90;;;9.90;99.90;;;;;;4155441;28;20489;-67
2024/03/13 05:11:14;;;;;;;5.15;3.88;;;9.90;99.90;;;;;;4157218;28;20037;-71
2024/03/13 05:13:15;;;;;;;4.80;3.88;;;9.90;99.90;;;;;;4161071;28;20103;-71
2024/03/13 05:15:17;;;;;;;4.78;3.92;;;9.90;99.90;;;;;;4157718;28;20029;-71
2024/03/13 05:17:17;;;;;;;6.45;5.07;;;9.90;99.90;;;;;;4156504;28;20030;-71
2024/03/13 05:19:18;;;;;;;4.68;3.95;;;9.90;99.90;;;;;;4158424;28;20060;-71
2024/03/13 05:21:19;;;;;;;5.80;4.32;;;9.90;99.90;;;;;;4156989;28;20061;-71
2024/03/13 05:23:20;;;;;;;5.50;4.18;;;9.90;99.90;;;;;;4159904;28;20477;-66
2024/03/13 05:25:24;;;;;;;4.65;4.07;;;9.90;99.90;;;;;;4141055;28;20073;-68
2024/03/13 05:27:26;;;;;;;4.38;3.88;;;9.90;99.90;;;;;;4158106;28;20037;-68
2024/03/13 05:29:27;;;;;;;4.82;3.95;;;9.90;99.90;;;;;;4169082;28;20044;-68
2024/03/13 05:31:28;;;;;;;6.38;4.60;;;9.90;99.90;;;;;;4153078;28;20111;-67
2024/03/13 05:33:29;;;;;;;4.85;4.00;;;9.90;99.90;;;;;;4146224;28;20091;-68
2024/03/13 05:35:30;;;;;;;5.35;4.43;;;9.90;99.90;;;;;;4153811;28;20576;-68
2024/03/13 05:37:31;;;;;;;4.65;4.10;;;10.00;99.90;;;;;;4155015;28;20037;-68
2024/03/13 05:39:33;;;;;;;6.72;4.40;;;10.00;99.90;;;;;;4151827;28;20110;-67
2024/03/13 05:41:34;;;;;;;4.75;4.15;;;9.90;99.90;;;;;;4150682;28;20108;-68
2024/03/13 05:43:35;;;;;;;4.70;3.95;;;10.00;99.90;;;;;;4154042;28;20030;-68
2024/03/13 05:45:36;;;;;;;5.00;4.03;;;10.00;99.90;;;;;;4149717;28;20121;-67
2024/03/13 05:47:38;;;;;;;4.63;4.07;;;10.00;99.90;;;;;;4155169;28;20505;-68
2024/03/13 05:49:41;;;;;;;4.43;4.00;;;10.00;99.90;;;;;;4154744;28;20041;-68
2024/03/13 05:51:42;;;;;;;4.65;3.90;;;10.00;99.90;;;;;;4151409;28;20477;-68
2024/03/13 05:53:44;;;;;;;6.17;4.17;;;10.00;99.90;;;;;;4144511;28;20029;-68
2024/03/13 05:55:45;;;;;;;6.30;4.22;;;10.10;99.90;;;;;;4151832;28;20494;-68
2024/03/13 05:57:46;;;;;;;4.45;3.72;;;10.00;99.90;;;;;;4153309;28;20045;-68
2024/03/13 05:59:50;;;;;;;4.45;4.03;;;10.10;99.90;;;;;;4152824;28;20111;-74
2024/03/13 06:01:51;;;;;;;5.10;4.50;;;10.10;99.90;;;;;;4157321;28;20033;-69
2024/03/13 06:03:53;;;;;;;5.13;4.07;;;10.10;99.90;;;;;;4159104;28;20076;-70
2024/03/13 06:05:53;;;;;;;5.25;4.13;;;10.10;99.90;;;;;;4158067;28;20032;-70
2024/03/13 06:07:56;;;;;;;5.28;4.22;;;10.10;99.90;;;;;;4157251;28;20521;-69
2024/03/13 06:09:57;;;;;;;5.53;4.85;;;10.20;99.90;;;;;;4155478;28;20496;-69
2024/03/13 06:11:58;;;;;;;5.80;4.53;;;10.20;99.90;;;;;;4150682;28;20118;-70
2024/03/13 06:13:59;;;;;;;5.30;4.30;;;10.20;99.90;;;;;;4152734;28;20038;-70
2024/03/13 06:16:00;;;;;;;4.68;3.78;;;10.20;99.90;;;;;;4148734;28;20030;-69
2024/03/13 06:18:01;;;;;;;7.07;4.38;;;10.20;99.90;;;;;;4153899;28;20033;-69
2024/03/13 06:20:13;;;;;;;5.25;4.32;;;10.20;99.90;;;;;;4185166;28;20067;-69
2024/03/13 06:22:14;;;;;;;4.18;3.67;;;10.20;99.90;;;;;;4151778;28;20079;-69
2024/03/13 06:24:20;;;;;;;5.20;4.30;;;10.20;99.90;;;;;;4155645;28;20095;-69
2024/03/13 06:26:21;;;;;;;4.82;4.18;;;10.20;99.90;;;;;;4150299;28;20436;-69
2024/03/13 06:30:41;;;;;;;4.95;4.05;;;10.30;99.90;;;;;;4140054;28;20033;-69
2024/03/13 06:32:45;;;;;;;5.50;4.50;;;10.30;99.90;;;;;;4149056;28;20498;-69
2024/03/13 06:34:45;;;;;;;4.88;3.83;;;10.30;99.90;;;;;;4149236;28;20072;-61
2024/03/13 06:36:46;;;;;;;5.30;4.20;;;10.30;99.90;;;;;;4157150;28;20112;-60
2024/03/13 06:38:47;;;;;;;4.95;4.15;;;10.30;99.90;;;;;;4142009;28;20033;-60
2024/03/13 06:40:48;;;;;;;5.13;4.43;;;10.40;99.90;;;;;;4150364;28;20041;-60
2024/03/13 06:42:49;;;;;;;7.40;5.10;;;10.40;99.90;;;;;;4151040;28;20041;-59
2024/03/13 06:44:49;;;;;;;6.50;4.80;;;10.40;99.90;;;;;;4147671;28;20073;-64
2024/03/13 06:46:53;;;;;;;5.88;4.63;;;10.40;99.90;;;;;;4156284;28;20045;-60
2024/03/13 06:48:55;;;;;;;5.22;4.43;;;10.40;99.90;;;;;;4156709;28;20477;-60
2024/03/13 06:50:55;;;;;;;5.53;4.30;;;10.50;99.90;;;;;;4157622;28;20034;-60
2024/03/13 06:52:56;;;;;;;7.05;5.30;;;10.50;99.90;;;;;;4158069;28;20036;-60
2024/03/13 06:54:56;;;;;;;5.97;4.85;;;10.50;99.90;;;;;;4155960;28;20041;-59
2024/03/13 06:56:57;;;;;;;6.82;5.28;;;10.50;99.90;;;;;;4156486;28;20465;-60
2024/03/13 06:58:58;;;;;;;6.90;5.22;;;10.50;99.90;;;;;;4154528;28;20034;-60
2024/03/13 07:00:58;;;;;;;6.68;5.32;;;10.60;99.90;;;;;;4157591;28;20033;-60
2024/03/13 07:03:01;;;;;;;8.82;5.90;;;10.60;99.90;;;;;;4157324;28;20435;-60
2024/03/13 07:05:03;;;;;;;10.15;6.03;;;10.60;99.90;;;;;;4157324;28;20482;-68
2024/03/13 07:07:04;;;;;;;12.23;6.85;;;10.60;99.90;;;;;;4156984;28;20037;-69
2024/03/13 07:09:06;;;;;;;14.68;6.93;;;10.70;99.90;;;;;;4158109;28;20053;-64
2024/03/13 07:11:07;;;;;;;;;;;10.70;99.90;;;;;;4160203;28;20065;-64
2024/03/13 07:13:08;;;;;;;13.55;7.25;;;10.70;99.90;;;;;;4162345;28;19913;-64
2024/03/13 07:15:10;;;;;;;13.18;7.05;;;10.70;99.90;;;;;;4156992;28;20071;-65
2024/03/13 07:17:10;;;;;;;13.95;7.32;;;10.70;99.90;;;;;;4161340;28;20107;-64
2024/03/13 07:19:11;;;;;;;13.20;7.53;;;10.80;99.90;;;;;;4159997;28;20041;-65
2024/03/13 07:21:12;;;;;;;17.50;8.35;;;10.80;99.90;;;;;;4160243;28;20029;-65
2024/03/13 07:23:13;;;;;;;13.93;7.72;;;10.80;99.90;;;;;;4158725;28;20445;-64
2024/03/13 07:25:16;;;;;;;12.65;7.10;;;10.90;99.90;;;;;;4152808;28;20049;-65
2024/03/13 07:27:18;;;;;;;11.15;7.60;;;10.80;99.90;;;;;;4154700;28;20053;-64
2024/03/13 07:29:19;;;;;;;12.32;7.47;;;10.90;99.90;;;;;;4153398;28;20990;-64
2024/03/13 07:31:20;;;;;;;10.50;7.00;;;10.90;99.90;;;;;;4154775;28;20029;-65
2024/03/13 07:33:21;;;;;;;8.95;6.32;;;10.90;99.90;;;;;;4159139;28;20041;-65
2024/03/13 07:35:24;;;;;;;10.15;7.13;;;11.00;99.90;;;;;;4154504;28;20125;-65
2024/03/13 07:37:25;;;;;;;10.73;7.28;;;11.00;99.90;;;;;;4159712;28;20501;-64
2024/03/13 07:39:28;;;;;;;9.80;6.88;;;11.00;99.90;;;;;;4170034;28;20045;-64
2024/03/13 07:41:31;;;;;;;8.50;6.47;;;11.00;99.90;;;;;;4158157;28;20041;-64
2024/03/13 07:43:32;;;;;;;12.07;7.88;;;11.10;99.90;;;;;;4160944;28;20069;-64
2024/03/13 07:45:32;;;;;;;10.38;7.30;;;11.10;99.90;;;;;;4158605;28;20037;-64
2024/03/13 07:47:33;;;;;;;11.85;8.45;;;11.10;99.90;;;;;;4158904;28;20099;-64
2024/03/13 07:49:34;;;;;;;13.35;9.35;;;11.10;99.90;;;;;;4158650;28;20414;-64
2024/03/13 07:51:34;;;;;;;13.20;9.13;;;11.20;99.90;;;;;;4159212;28;20038;-64
2024/03/13 07:53:35;;;;;;;16.25;9.50;;;11.20;99.90;;;;;;4161197;28;21334;-72
2024/03/13 07:55:36;;;;;;;16.20;10.77;;;11.30;99.90;;;;;;4153977;28;20532;-64
2024/03/13 07:57:37;;;;;;;13.60;9.57;;;11.30;99.90;;;;;;4160218;28;20120;-64
2024/03/13 07:59:40;;;;;;;15.25;9.82;;;11.30;99.90;;;;;;4159990;28;20100;-64
2024/03/13 08:01:41;;;;;;;15.07;9.40;;;11.30;99.90;;;;;;4157276;28;20064;-64
2024/03/13 08:03:42;;;;;;;15.07;10.13;;;11.30;99.90;;;;;;4159953;28;20108;-65
2024/03/13 08:05:42;;;;;;;16.77;10.65;;;11.30;99.90;;;;;;4158328;28;20038;-65
2024/03/13 08:07:47;;;;;;;17.20;10.65;;;11.30;99.90;;;;;;4158848;28;20449;-64
2024/03/13 08:09:47;;;;;;;15.55;9.98;;;11.40;99.90;;;;;;4158798;28;20040;-64
2024/03/13 08:11:48;;;;;;;16.00;10.88;;;11.40;99.90;;;;;;4159698;28;20033;-64
2024/03/13 08:13:50;;;;;;;16.15;10.60;;;11.40;99.90;;;;;;4159183;28;20132;-64
2024/03/13 08:15:51;;;;;;;15.98;11.35;;;11.50;99.90;;;;;;4158257;28;20049;-65
2024/03/13 08:17:51;;;;;;;19.55;12.63;;;11.50;99.90;;;;;;4158255;28;20033;-65
2024/03/13 08:19:53;;;;;;;17.08;11.85;;;11.50;99.90;;;;;;4156804;28;20036;-65
2024/03/13 08:21:53;;;;;;;17.77;12.43;;;11.50;99.90;;;;;;4158063;28;20037;-65
2024/03/13 08:23:54;;;;;;;16.35;11.60;;;11.50;99.90;;;;;;4159100;28;20071;-64
2024/03/13 08:25:55;;;;;;;19.10;13.18;;;11.50;99.90;;;;;;4157665;28;20038;-65
2024/03/13 08:27:56;;;;;;;16.08;11.02;;;11.50;99.90;;;;;;4171791;28;20559;-65
2024/03/13 08:29:57;;;;;;;16.65;11.65;;;11.50;99.90;;;;;;4159053;28;20079;-65
2024/03/13 08:31:58;;;;;;;17.38;11.43;;;11.50;99.90;;;;;;4158221;28;20480;-64
2024/03/13 08:33:59;;;;;;;17.65;11.93;;;11.60;99.90;;;;;;4158717;28;20041;-65
2024/03/13 08:36:04;;;;;;;23.25;13.80;;;11.60;99.90;;;;;;4159472;28;20099;-65
2024/03/13 08:38:05;;;;;;;21.75;14.07;;;11.50;99.90;;;;;;4159543;28;20121;-64
2024/03/13 08:40:07;;;;;;;19.42;12.90;;;11.50;99.90;;;;;;4158995;28;20037;-65
2024/03/13 08:42:07;;;;;;;19.07;11.67;;;11.50;99.90;;;;;;4158539;28;20045;-65
2024/03/13 08:44:09;;;;;;;21.42;13.02;;;11.60;99.90;;;;;;4160139;28;20038;-65
2024/03/13 08:46:09;;;;;;;23.13;14.05;;;11.60;99.90;;;;;;4158161;28;20526;-64
2024/03/13 08:48:10;;;;;;;22.08;13.85;;;11.60;99.90;;;;;;4159236;28;20052;-64
2024/03/13 08:50:12;;;;;;;20.73;12.60;;;11.60;99.90;;;;;;4155835;28;20540;-67
2024/03/13 08:52:12;;;;;;;21.35;13.48;;;11.60;99.90;;;;;;4159943;28;20038;-64
2024/03/13 08:54:13;;;;;;;20.98;13.75;;;11.60;99.90;;;;;;4150780;28;20104;-65
2024/03/13 08:56:13;;;;;;;22.45;13.63;;;11.60;99.90;;;;;;4158552;28;20493;-65
2024/03/13 08:58:14;;;;;;;25.20;15.07;;;11.60;99.90;;;;;;4159465;28;20486;-65
2024/03/13 09:00:18;;;;;;;21.27;11.90;;;11.70;99.90;;;;;;4158258;28;20061;-65
2024/03/13 09:02:20;;;;;;;21.63;12.95;;;11.60;99.90;;;;;;4160193;28;20041;-65
2024/03/13 09:04:22;;;;;;;21.52;12.48;;;11.70;99.90;;;;;;4157904;28;20428;-64
2024/03/13 09:06:22;;;;;;;24.00;14.73;;;11.70;99.90;;;;;;4157708;28;20037;-65
2024/03/13 09:08:24;;;;;;;20.95;12.68;;;11.70;99.90;;;;;;4157410;28;20151;-65
2024/03/13 09:10:25;;;;;;;20.08;12.55;;;11.70;99.90;;;;;;4156605;28;20037;-64
2024/03/13 09:12:26;;;;;;;22.17;13.02;;;11.70;99.90;;;;;;4160065;28;20033;-65
2024/03/13 09:14:26;;;;;;;19.05;11.95;;;11.70;99.90;;;;;;4159400;28;20095;-69
2024/03/13 09:16:28;;;;;;;18.30;11.90;;;11.70;99.90;;;;;;4158046;28;20398;-69
2024/03/13 09:18:28;;;;;;;22.65;13.13;;;11.80;99.90;;;;;;4159097;28;20033;-69
2024/03/13 09:20:29;;;;;;;19.67;12.35;;;11.70;99.90;;;;;;4156558;28;20032;-69
2024/03/13 09:22:30;;;;;;;23.90;12.43;;;11.70;99.90;;;;;;4159665;28;20029;-69
2024/03/13 09:24:30;;;;;;;20.20;12.57;;;11.80;99.90;;;;;;4152289;28;20042;-69
2024/03/13 09:26:38;;;;;;;24.00;12.88;;;11.80;99.90;;;;;;4156715;28;20080;-69
2024/03/13 09:28:39;;;;;;;19.85;12.45;;;11.80;99.90;;;;;;4159012;28;20129;-69
2024/03/13 09:30:39;;;;;;;24.10;13.50;;;11.80;99.90;;;;;;4158380;28;20681;-69
2024/03/13 09:32:41;;;;;;;23.15;14.57;;;11.90;99.90;;;;;;4159575;28;20069;-69
2024/03/13 09:34:42;;;;;;;24.88;15.07;;;11.90;99.90;;;;;;4157941;28;20046;-69
2024/03/13 09:36:43;;;;;;;19.98;13.68;;;11.90;99.90;;;;;;4152313;28;20488;-69
2024/03/13 09:38:44;;;;;;;18.40;12.02;;;11.90;99.90;;;;;;4158854;28;20038;-69
2024/03/13 09:40:44;;;;;;;17.75;11.85;;;11.90;99.90;;;;;;4157696;28;20041;-68
2024/03/13 09:42:47;;;;;;;19.92;13.13;;;12.00;99.90;;;;;;4159900;28;20406;-68
2024/03/13 09:44:49;;;;;;;;;;;12.00;99.90;;;;;;4160375;28;20030;-69
2024/03/13 09:46:53;;;;;;;18.10;12.18;;;12.00;99.90;;;;;;4158481;28;19908;-69
2024/03/13 09:48:55;;;;;;;24.42;14.00;;;12.00;99.90;;;;;;4146665;28;20069;-69
2024/03/13 09:50:56;;;;;;;22.52;14.25;;;12.00;99.90;;;;;;4156357;28;20083;-69
2024/03/13 09:52:58;;;;;;;20.92;11.90;;;12.00;99.90;;;;;;4159186;28;20505;-69
2024/03/13 09:55:01;;;;;;;19.47;12.33;;;12.10;99.90;;;;;;4158018;28;20459;-69
2024/03/13 09:57:02;;;;;;;19.65;11.50;;;12.00;99.90;;;;;;4155025;28;20053;-69
2024/03/13 09:59:04;;;;;;;16.35;10.55;;;12.00;99.90;;;;;;4156518;28;20061;-69
2024/03/13 10:01:09;;;;;;;;;;;12.00;99.90;;;;;;4155702;28;20413;-69
2024/03/13 10:03:31;;;;;;;17.02;10.57;;;12.00;99.90;;;;;;4158502;28;19996;-69
2024/03/13 10:05:32;;;;;;;14.13;8.93;;;12.10;99.90;;;;;;4154470;28;20462;-68
2024/03/13 10:07:33;;;;;;;15.23;9.70;;;12.10;99.90;;;;;;4140826;28;20107;-69
2024/03/13 10:09:35;;;;;;;14.98;9.40;;;12.10;99.90;;;;;;4158642;28;20524;-69
2024/03/13 10:11:36;;;;;;;16.85;9.27;;;12.10;99.90;;;;;;4156882;28;20045;-69
2024/03/13 10:13:38;;;;;;;11.98;8.73;;;12.10;99.90;;;;;;4158683;28;20087;-69
2024/03/13 10:15:40;;;;;;;11.38;8.07;;;12.10;99.90;;;;;;4155816;28;20548;-69
2024/03/13 10:17:44;;;;;;;11.82;7.80;;;12.10;99.90;;;;;;4157876;28;20045;-69
2024/03/13 10:19:46;;;;;;;13.20;7.95;;;12.10;99.90;;;;;;4157582;28;20033;-69
2024/03/13 10:21:49;;;;;;;11.52;7.38;;;12.10;99.90;;;;;;4155750;28;20041;-68
2024/03/13 10:23:50;;;;;;;8.65;5.63;;;12.20;99.90;;;;;;4156573;28;20446;-69
2024/03/13 10:25:52;;;;;;;9.38;5.90;;;12.20;99.90;;;;;;4157038;28;20508;-69
2024/03/13 10:27:53;;;;;;;9.07;6.20;;;12.30;99.90;;;;;;4155956;28;21345;-68
2024/03/13 10:29:54;;;;;;;8.77;6.00;;;12.30;99.90;;;;;;4158096;28;20029;-68
2024/03/13 10:31:55;;;;;;;10.00;6.60;;;12.30;99.90;;;;;;4158255;28;20561;-68
2024/03/13 10:33:56;;;;;;;11.85;7.22;;;12.30;99.90;;;;;;4158848;28;20040;-67
2024/03/13 10:35:57;;;;;;;9.57;6.10;;;12.40;99.90;;;;;;4156229;28;20038;-67
2024/03/13 10:37:58;;;;;;;8.63;5.90;;;12.40;99.90;;;;;;4158452;28;20453;-68
2024/03/13 10:40:04;;;;;;;13.07;6.20;;;12.40;99.90;;;;;;4157744;28;20374;-67
2024/03/13 10:42:07;;;;;;;8.98;5.28;;;12.40;99.90;;;;;;4155465;28;20393;-67
2024/03/13 10:44:09;;;;;;;10.68;6.10;;;12.50;99.90;;;;;;4157270;28;20447;-67
2024/03/13 10:46:11;;;;;;;10.88;6.25;;;12.50;99.90;;;;;;4157071;28;20072;-67
2024/03/13 10:48:12;;;;;;;8.32;5.50;;;12.50;99.90;;;;;;4151036;28;20048;-67
2024/03/13 10:50:12;;;;;;;6.95;4.95;;;12.50;99.90;;;;;;4152299;28;20048;-67